Curtis, AR (71728)

12:20 CDT le 29 Mars 2015 (GMT -0500)
Florence Mem AP, Arkadelphia, | | Change Station
CLOSE
Current Station
Aéroport
Location: Florence Mem AP, Arkadelphia,,
Altitude: 184 ft
Stations météo à proximité

Alt. 184 ft 34.10 °N, 93.07 °W | Updated 24 minutes ago

Partiellement nuageux
Partiellement nuageux
61 ° F
Paraît 61 ° F
N
5
Vent Variable Vent de Variable

Aujourd'hui
Haut(e) -- | Bas -- ° F
--% Risque de précip.
Hier
Haut(e) -- | Bas -- ° F
Precip. -- pouce
7:04 AM 7:30 PM
Lune gibbeuse croissante, 73% visible
Pression 30.18 pouce
Visibilité 10.0 Miles terrestres
Nuages Ciel dégagé
Point de rosée 51 ° F
Humidité 69%
Précipitations 0.00 pouce
Profondeur de la couche neigeuse Non disponible.
UV 8 sur 12
Pollen 10.30 sur 12
Qualité de l'air Non disponible.
Flu Activity Non disponible.
METAR KADF 291656Z AUTO VRB04KT 10SM CLR 16/11 A3014 RMK AO2 T01610105 SLP220

More Conditions Fewer Conditions

Pression 30.18 pouce
Visibilité 10.0 Miles terrestres
Nuages Ciel dégagé
Point de rosée 51 ° F
Humidité 69%
Précipitations 0.00 pouce
Profondeur de la couche neigeuse Non disponible.
UV 8 sur 12
Pollen 10.30 sur 12
Qualité de l'air Non disponible.
Flu Activity Non disponible.
METAR KADF 291656Z AUTO VRB04KT 10SM CLR 16/11 A3014 RMK AO2 T01610105 SLP220

More Conditions Fewer Conditions

10-Day Weather Forecast

Almanac

Astronomie

Mar. 29, 2015 Lever Coucher
Temps réel
Crépuscule civil
Crépuscule nautique
Crépuscule astronomique
Lune
Durée de lumière visible
Longueur du jour
Tomorrow will be .
, % of the Moon is Illuminated

Extrêmes aujourd'hui

State Highs State Lows

Community

WunderPhotos

Upload Photos

1,809,302 Photos téléchargées !

WunderBlogs® & News

Nearby

Qualité de l'air

  Qualité de l'air Indice de la qualité de l'air Polluant
Not available.

Épaisseur de neige

Station Depth Altitude

Activité sismique

Ville Distance Mag. Time & Date
Minimum magnitude displayed is 2.5.

Températures des eaux côtières

Lieu Température

Stations

Stations météo à proximité

Emplacement de la station Température Refroidissement éolien Point de rosée Humidité Vent Precip. Alt. Mise à jour Type